Airfield :
LOGIN :

Register | Disclaimer

   EN    FR    IT 

 










Legend :    VFR   Marginal VFR   IFR   Intensive IFR   Very Intensive IFR
Visi :
Ceiling :
>= 8 km
>= 3000ft
5 to 8 km
1000 to 3000 ft
1500m to 5 km
500 to 1000 ft
800 to 1500m
200 to 500 ft
< 800m
< 200 ft
Symbols :   Thunderstorms  Fog  Heavy snow  Heavy precipitations  Wind > 20 kt
SIGMETs :     Misc.  Thunderstorms  Icing  Turbulence  Mountain Waves  Volcanic Ashes






- Airport Elevation : 587 ft
- IATA code : XCR


LFOK - Chalons Vatry

CURRENT METAR :
  • 192300Z AUTO 13003KT CAVOK 00/M00 Q1018 BECMG 2000 BR

EXPIRED METARs :
  • 192230Z AUTO 14003KT CAVOK 01/00 Q1018 BECMG 2000 BR
  • 192200Z AUTO VRB01KT 8000 NSC 00/00 Q1018 BECMG 2000 BR
  • 192130Z AUTO 04003KT 360V080 CAVOK 01/00 Q1018 BECMG 2000 BR
  • 192100Z AUTO 09007KT 9999 FEW015 01/01 Q1018 BECMG 2000 BR
  • 192030Z AUTO 10006KT CAVOK 02/01 Q1018 BECMG 2000 BR
  • 192000Z AUTO 07004KT 9999 FEW042 SCT200 02/01 Q1018 BECMG 2000 BR

TAF TAF LFOK
Valid from the 19 at 18:00 until the 20 at 18:00 UTC


191700Z 1918/2018 VRB03KT 9999 SCT040
BECMG 1920/1923 2000 BR
BECMG 2002/2005 0200 FZFG VV///
BECMG 2010/2012 10010KT 8000 NSW OVC006
BECMG 2012/2015 BKN015



MET'MAP, your aeronautical weather chart ! - Copyright ORBIFLY December 2007 - Disclaimer

ORBIFLY MET'MAP TEAM :

Programming & Development : Alexandra Zaïnal
Concept & Development : Baudouin d'Aumeries
Co-Development & Prog : Marc-Olivier Méhu
Technical & hardware support : Manuel Goepfert

Contact : metmap@orbifly.com




SOURCES & CREDITS :

   NOAA